sensor_id;sensor_type;location;lat;lon;timestamp;temperature;humidity
34776;DHT22;20989;52.566;13.346;2022-09-29T00:01:38;20.60;55.00
34776;DHT22;20989;52.566;13.346;2022-09-29T00:04:39;20.70;55.80
34776;DHT22;20989;52.566;13.346;2022-09-29T00:07:40;20.60;54.70
34776;DHT22;20989;52.566;13.346;2022-09-29T00:10:40;20.60;55.80
34776;DHT22;20989;52.566;13.346;2022-09-29T00:13:41;20.60;55.70
34776;DHT22;20989;52.566;13.346;2022-09-29T00:16:42;20.60;55.60
34776;DHT22;20989;52.566;13.346;2022-09-29T00:19:42;20.60;54.80
34776;DHT22;20989;52.566;13.346;2022-09-29T00:22:43;20.60;55.40
34776;DHT22;20989;52.566;13.346;2022-09-29T00:25:44;20.70;55.10
34776;DHT22;20989;52.566;13.346;2022-09-29T00:28:50;20.60;55.00
34776;DHT22;20989;52.566;13.346;2022-09-29T00:31:56;20.60;55.00
34776;DHT22;20989;52.566;13.346;2022-09-29T00:34:56;20.70;55.00
34776;DHT22;20989;52.566;13.346;2022-09-29T00:37:57;20.70;56.10
34776;DHT22;20989;52.566;13.346;2022-09-29T00:40:58;20.70;55.80
34776;DHT22;20989;52.566;13.346;2022-09-29T00:47:15;20.60;55.40
34776;DHT22;20989;52.566;13.346;2022-09-29T00:50:24;20.60;54.90
34776;DHT22;20989;52.566;13.346;2022-09-29T00:53:27;20.70;55.10
34776;DHT22;20989;52.566;13.346;2022-09-29T00:56:29;20.60;55.20
34776;DHT22;20989;52.566;13.346;2022-09-29T00:59:39;20.70;55.90
34776;DHT22;20989;52.566;13.346;2022-09-29T01:02:52;20.60;56.00
34776;DHT22;20989;52.566;13.346;2022-09-29T01:06:02;20.60;54.90
34776;DHT22;20989;52.566;13.346;2022-09-29T01:09:08;20.60;55.40
34776;DHT22;20989;52.566;13.346;2022-09-29T01:12:09;20.60;55.80
34776;DHT22;20989;52.566;13.346;2022-09-29T01:15:12;20.60;55.70
34776;DHT22;20989;52.566;13.346;2022-09-29T01:18:13;20.60;55.90
34776;DHT22;20989;52.566;13.346;2022-09-29T01:21:28;20.60;55.60
34776;DHT22;20989;52.566;13.346;2022-09-29T01:34:33;20.60;54.60
34776;DHT22;20989;52.566;13.346;2022-09-29T01:44:36;20.60;55.50
34776;DHT22;20989;52.566;13.346;2022-09-29T01:47:46;20.60;54.90
34776;DHT22;20989;52.566;13.346;2022-09-29T01:50:52;20.60;55.70
34776;DHT22;20989;52.566;13.346;2022-09-29T01:53:58;20.60;55.30
34776;DHT22;20989;52.566;13.346;2022-09-29T02:00:18;20.60;55.20
34776;DHT22;20989;52.566;13.346;2022-09-29T02:06:24;20.60;54.80
34776;DHT22;20989;52.566;13.346;2022-09-29T02:09:29;20.60;55.00
34776;DHT22;20989;52.566;13.346;2022-09-29T02:12:34;20.60;54.70
34776;DHT22;20989;52.566;13.346;2022-09-29T02:15:38;20.60;54.90
34776;DHT22;20989;52.566;13.346;2022-09-29T02:18:52;20.60;55.70
34776;DHT22;20989;52.566;13.346;2022-09-29T02:21:54;20.60;55.60
34776;DHT22;20989;52.566;13.346;2022-09-29T02:24:57;20.60;55.90
34776;DHT22;20989;52.566;13.346;2022-09-29T02:27:58;20.60;55.40
34776;DHT22;20989;52.566;13.346;2022-09-29T02:30:59;20.60;55.30
34776;DHT22;20989;52.566;13.346;2022-09-29T02:34:02;20.60;55.80
34776;DHT22;20989;52.566;13.346;2022-09-29T02:40:58;20.60;56.10
34776;DHT22;20989;52.566;13.346;2022-09-29T02:44:40;20.60;55.50
34776;DHT22;20989;52.566;13.346;2022-09-29T02:48:04;20.60;55.50
34776;DHT22;20989;52.566;13.346;2022-09-29T02:51:17;20.60;55.50
34776;DHT22;20989;52.566;13.346;2022-09-29T02:57:51;20.60;54.80
34776;DHT22;20989;52.566;13.346;2022-09-29T03:00:53;20.60;55.20
34776;DHT22;20989;52.566;13.346;2022-09-29T03:03:54;20.60;55.40
34776;DHT22;20989;52.566;13.346;2022-09-29T03:06:55;20.60;54.70
34776;DHT22;20989;52.566;13.346;2022-09-29T03:09:56;20.60;55.30
34776;DHT22;20989;52.566;13.346;2022-09-29T03:12:56;20.60;54.90
34776;DHT22;20989;52.566;13.346;2022-09-29T03:15:57;20.60;55.30
34776;DHT22;20989;52.566;13.346;2022-09-29T03:18:58;20.60;55.10
34776;DHT22;20989;52.566;13.346;2022-09-29T03:21:58;20.60;54.80
34776;DHT22;20989;52.566;13.346;2022-09-29T03:24:59;20.60;55.10
34776;DHT22;20989;52.566;13.346;2022-09-29T03:28:00;20.60;55.60
34776;DHT22;20989;52.566;13.346;2022-09-29T03:31:08;20.60;54.90
34776;DHT22;20989;52.566;13.346;2022-09-29T03:34:09;20.60;54.80
34776;DHT22;20989;52.566;13.346;2022-09-29T03:37:10;20.50;54.80
34776;DHT22;20989;52.566;13.346;2022-09-29T03:40:10;20.60;55.10
34776;DHT22;20989;52.566;13.346;2022-09-29T03:43:11;20.50;55.20
34776;DHT22;20989;52.566;13.346;2022-09-29T03:46:12;20.60;54.70
34776;DHT22;20989;52.566;13.346;2022-09-29T03:49:13;20.60;55.30
34776;DHT22;20989;52.566;13.346;2022-09-29T03:52:17;20.50;54.90
34776;DHT22;20989;52.566;13.346;2022-09-29T03:55:18;20.60;55.20
34776;DHT22;20989;52.566;13.346;2022-09-29T03:58:19;20.60;55.80
34776;DHT22;20989;52.566;13.346;2022-09-29T04:01:20;20.50;55.00
34776;DHT22;20989;52.566;13.346;2022-09-29T04:04:21;20.50;56.20
34776;DHT22;20989;52.566;13.346;2022-09-29T04:07:22;20.50;55.30
34776;DHT22;20989;52.566;13.346;2022-09-29T04:10:22;20.50;55.10
34776;DHT22;20989;52.566;13.346;2022-09-29T04:13:23;20.60;55.00
34776;DHT22;20989;52.566;13.346;2022-09-29T04:16:24;20.50;55.80
34776;DHT22;20989;52.566;13.346;2022-09-29T04:19:24;20.50;55.10
34776;DHT22;20989;52.566;13.346;2022-09-29T04:22:25;20.50;56.60
34776;DHT22;20989;52.566;13.346;2022-09-29T04:25:26;20.50;55.80
34776;DHT22;20989;52.566;13.346;2022-09-29T04:28:31;20.50;54.80
34776;DHT22;20989;52.566;13.346;2022-09-29T04:31:32;20.60;54.70
34776;DHT22;20989;52.566;13.346;2022-09-29T04:34:32;20.60;54.90
34776;DHT22;20989;52.566;13.346;2022-09-29T04:37:34;20.60;55.40
34776;DHT22;20989;52.566;13.346;2022-09-29T04:40:35;20.50;55.10
34776;DHT22;20989;52.566;13.346;2022-09-29T04:43:36;20.50;54.80
34776;DHT22;20989;52.566;13.346;2022-09-29T04:46:36;20.60;55.80
34776;DHT22;20989;52.566;13.346;2022-09-29T04:49:37;20.50;55.30
34776;DHT22;20989;52.566;13.346;2022-09-29T04:52:41;20.50;55.30
34776;DHT22;20989;52.566;13.346;2022-09-29T04:55:42;20.50;55.10
34776;DHT22;20989;52.566;13.346;2022-09-29T04:58:43;20.50;55.40
34776;DHT22;20989;52.566;13.346;2022-09-29T05:01:44;20.50;54.70
34776;DHT22;20989;52.566;13.346;2022-09-29T05:04:45;20.50;56.00
34776;DHT22;20989;52.566;13.346;2022-09-29T05:07:47;20.50;54.00
34776;DHT22;20989;52.566;13.346;2022-09-29T05:10:47;20.50;53.90
34776;DHT22;20989;52.566;13.346;2022-09-29T05:13:50;20.60;54.90
34776;DHT22;20989;52.566;13.346;2022-09-29T05:16:53;20.70;54.20
34776;DHT22;20989;52.566;13.346;2022-09-29T05:19:54;20.70;53.40
34776;DHT22;20989;52.566;13.346;2022-09-29T05:22:57;20.80;54.10
34776;DHT22;20989;52.566;13.346;2022-09-29T05:26:16;20.90;54.60
34776;DHT22;20989;52.566;13.346;2022-09-29T05:29:17;20.90;53.80
34776;DHT22;20989;52.566;13.346;2022-09-29T05:32:18;20.80;53.90
34776;DHT22;20989;52.566;13.346;2022-09-29T05:35:19;20.80;54.40
34776;DHT22;20989;52.566;13.346;2022-09-29T05:38:19;20.80;55.10
34776;DHT22;20989;52.566;13.346;2022-09-29T05:41:20;20.80;55.60
34776;DHT22;20989;52.566;13.346;2022-09-29T05:44:24;20.80;54.70
34776;DHT22;20989;52.566;13.346;2022-09-29T05:47:24;20.80;55.30
34776;DHT22;20989;52.566;13.346;2022-09-29T05:50:25;20.90;54.40
34776;DHT22;20989;52.566;13.346;2022-09-29T05:53:26;20.90;53.50
34776;DHT22;20989;52.566;13.346;2022-09-29T05:56:27;21.00;53.20
34776;DHT22;20989;52.566;13.346;2022-09-29T05:59:27;21.00;54.10
34776;DHT22;20989;52.566;13.346;2022-09-29T06:02:28;21.00;53.30
34776;DHT22;20989;52.566;13.346;2022-09-29T06:05:29;21.00;53.40
34776;DHT22;20989;52.566;13.346;2022-09-29T06:08:29;21.00;53.00
34776;DHT22;20989;52.566;13.346;2022-09-29T06:11:30;21.00;54.60
34776;DHT22;20989;52.566;13.346;2022-09-29T06:14:31;21.00;54.00
34776;DHT22;20989;52.566;13.346;2022-09-29T06:17:32;20.90;53.00
34776;DHT22;20989;52.566;13.346;2022-09-29T06:20:33;20.90;53.10
34776;DHT22;20989;52.566;13.346;2022-09-29T06:23:38;20.90;53.20
34776;DHT22;20989;52.566;13.346;2022-09-29T06:26:39;20.90;53.00
34776;DHT22;20989;52.566;13.346;2022-09-29T06:29:40;21.00;53.40
34776;DHT22;20989;52.566;13.346;2022-09-29T06:32:41;20.90;53.00
34776;DHT22;20989;52.566;13.346;2022-09-29T06:35:47;20.90;53.60
34776;DHT22;20989;52.566;13.346;2022-09-29T06:39:10;20.90;54.10
34776;DHT22;20989;52.566;13.346;2022-09-29T06:42:10;20.90;53.90
34776;DHT22;20989;52.566;13.346;2022-09-29T06:45:11;21.00;54.10
34776;DHT22;20989;52.566;13.346;2022-09-29T06:48:12;20.90;53.80
34776;DHT22;20989;52.566;13.346;2022-09-29T06:51:13;20.90;54.20
34776;DHT22;20989;52.566;13.346;2022-09-29T06:54:16;20.90;54.00
34776;DHT22;20989;52.566;13.346;2022-09-29T06:57:17;20.90;54.10
34776;DHT22;20989;52.566;13.346;2022-09-29T07:00:18;20.90;53.90
34776;DHT22;20989;52.566;13.346;2022-09-29T07:03:19;20.90;53.20
34776;DHT22;20989;52.566;13.346;2022-09-29T07:06:20;21.00;53.00
34776;DHT22;20989;52.566;13.346;2022-09-29T07:09:20;21.00;52.50
34776;DHT22;20989;52.566;13.346;2022-09-29T07:12:22;21.00;52.70
34776;DHT22;20989;52.566;13.346;2022-09-29T07:15:24;21.10;52.90
34776;DHT22;20989;52.566;13.346;2022-09-29T07:18:30;21.10;53.40
34776;DHT22;20989;52.566;13.346;2022-09-29T07:21:31;21.10;52.70
34776;DHT22;20989;52.566;13.346;2022-09-29T07:24:32;21.10;52.80
34776;DHT22;20989;52.566;13.346;2022-09-29T07:27:32;21.10;52.70
34776;DHT22;20989;52.566;13.346;2022-09-29T07:30:34;21.20;52.80
34776;DHT22;20989;52.566;13.346;2022-09-29T07:33:36;21.20;52.80
34776;DHT22;20989;52.566;13.346;2022-09-29T07:36:37;21.20;53.60
34776;DHT22;20989;52.566;13.346;2022-09-29T07:39:38;21.20;54.20
34776;DHT22;20989;52.566;13.346;2022-09-29T07:42:39;21.30;53.60
34776;DHT22;20989;52.566;13.346;2022-09-29T07:45:48;21.40;53.50
34776;DHT22;20989;52.566;13.346;2022-09-29T07:48:49;21.50;53.30
34776;DHT22;20989;52.566;13.346;2022-09-29T07:51:50;21.60;53.10
34776;DHT22;20989;52.566;13.346;2022-09-29T07:54:51;21.50;53.90
34776;DHT22;20989;52.566;13.346;2022-09-29T07:57:52;21.60;53.40
34776;DHT22;20989;52.566;13.346;2022-09-29T08:00:54;21.60;53.30
34776;DHT22;20989;52.566;13.346;2022-09-29T08:03:55;21.70;53.20
34776;DHT22;20989;52.566;13.346;2022-09-29T08:06:55;21.60;53.40
34776;DHT22;20989;52.566;13.346;2022-09-29T08:09:56;21.50;54.00
34776;DHT22;20989;52.566;13.346;2022-09-29T08:12:57;21.60;53.60
34776;DHT22;20989;52.566;13.346;2022-09-29T08:15:58;21.70;53.60
34776;DHT22;20989;52.566;13.346;2022-09-29T08:19:00;21.70;53.20
34776;DHT22;20989;52.566;13.346;2022-09-29T08:22:01;21.70;53.50
34776;DHT22;20989;52.566;13.346;2022-09-29T08:25:02;21.70;53.50
34776;DHT22;20989;52.566;13.346;2022-09-29T08:28:02;21.70;53.60
34776;DHT22;20989;52.566;13.346;2022-09-29T08:31:06;21.70;53.70
34776;DHT22;20989;52.566;13.346;2022-09-29T08:34:08;21.70;53.80
34776;DHT22;20989;52.566;13.346;2022-09-29T08:37:09;21.80;53.30
34776;DHT22;20989;52.566;13.346;2022-09-29T08:40:10;21.80;53.40
34776;DHT22;20989;52.566;13.346;2022-09-29T08:43:19;21.80;53.10
34776;DHT22;20989;52.566;13.346;2022-09-29T08:49:41;21.80;54.10
34776;DHT22;20989;52.566;13.346;2022-09-29T08:52:48;21.70;53.30
34776;DHT22;20989;52.566;13.346;2022-09-29T08:56:05;21.70;53.30
34776;DHT22;20989;52.566;13.346;2022-09-29T08:59:09;21.80;53.50
34776;DHT22;20989;52.566;13.346;2022-09-29T09:12:27;21.80;53.50
34776;DHT22;20989;52.566;13.346;2022-09-29T09:16:06;21.80;53.60
34776;DHT22;20989;52.566;13.346;2022-09-29T09:22:37;21.90;53.80
34776;DHT22;20989;52.566;13.346;2022-09-29T09:26:09;21.90;53.40
34776;DHT22;20989;52.566;13.346;2022-09-29T09:29:28;21.90;53.30
34776;DHT22;20989;52.566;13.346;2022-09-29T09:32:34;21.90;53.60
34776;DHT22;20989;52.566;13.346;2022-09-29T09:35:48;21.90;53.60
34776;DHT22;20989;52.566;13.346;2022-09-29T09:38:58;21.90;53.80
34776;DHT22;20989;52.566;13.346;2022-09-29T09:42:06;21.90;53.80
34776;DHT22;20989;52.566;13.346;2022-09-29T09:45:24;21.90;53.50
34776;DHT22;20989;52.566;13.346;2022-09-29T09:48:37;21.90;53.80
34776;DHT22;20989;52.566;13.346;2022-09-29T09:52:12;21.90;53.90
34776;DHT22;20989;52.566;13.346;2022-09-29T09:55:22;21.90;54.40
34776;DHT22;20989;52.566;13.346;2022-09-29T10:01:43;21.90;53.80
34776;DHT22;20989;52.566;13.346;2022-09-29T10:04:50;21.90;54.00
34776;DHT22;20989;52.566;13.346;2022-09-29T10:07:52;21.90;53.90
34776;DHT22;20989;52.566;13.346;2022-09-29T10:10:54;21.90;53.80
34776;DHT22;20989;52.566;13.346;2022-09-29T10:14:03;21.90;53.70
34776;DHT22;20989;52.566;13.346;2022-09-29T10:17:10;21.90;53.90
34776;DHT22;20989;52.566;13.346;2022-09-29T10:20:13;21.90;53.70
34776;DHT22;20989;52.566;13.346;2022-09-29T10:23:32;21.90;53.80
34776;DHT22;20989;52.566;13.346;2022-09-29T10:26:41;22.10;53.70
34776;DHT22;20989;52.566;13.346;2022-09-29T10:29:44;22.10;53.50
34776;DHT22;20989;52.566;13.346;2022-09-29T10:32:54;22.20;53.60
34776;DHT22;20989;52.566;13.346;2022-09-29T10:36:06;22.20;54.00
34776;DHT22;20989;52.566;13.346;2022-09-29T10:42:42;22.00;53.90
34776;DHT22;20989;52.566;13.346;2022-09-29T10:45:46;22.10;53.70
34776;DHT22;20989;52.566;13.346;2022-09-29T10:52:23;22.20;53.70
34776;DHT22;20989;52.566;13.346;2022-09-29T10:55:26;22.20;54.20
34776;DHT22;20989;52.566;13.346;2022-09-29T11:01:41;22.20;54.00
34776;DHT22;20989;52.566;13.346;2022-09-29T11:04:45;22.30;53.60
34776;DHT22;20989;52.566;13.346;2022-09-29T11:07:49;22.30;54.00
34776;DHT22;20989;52.566;13.346;2022-09-29T11:11:28;22.30;53.50
34776;DHT22;20989;52.566;13.346;2022-09-29T11:17:37;22.40;53.30
34776;DHT22;20989;52.566;13.346;2022-09-29T11:20:38;22.10;54.10
34776;DHT22;20989;52.566;13.346;2022-09-29T11:34:34;22.20;53.60
34776;DHT22;20989;52.566;13.346;2022-09-29T11:37:58;22.10;53.90
34776;DHT22;20989;52.566;13.346;2022-09-29T11:41:38;22.10;53.80
34776;DHT22;20989;52.566;13.346;2022-09-29T11:44:54;22.20;54.00
34776;DHT22;20989;52.566;13.346;2022-09-29T12:05:12;22.00;54.50
34776;DHT22;20989;52.566;13.346;2022-09-29T12:18:04;22.20;54.40
34776;DHT22;20989;52.566;13.346;2022-09-29T12:21:10;22.30;53.70
34776;DHT22;20989;52.566;13.346;2022-09-29T12:27:39;22.50;53.70
34776;DHT22;20989;52.566;13.346;2022-09-29T12:31:11;22.50;53.70
34776;DHT22;20989;52.566;13.346;2022-09-29T12:34:44;22.50;53.00
34776;DHT22;20989;52.566;13.346;2022-09-29T12:41:34;22.20;54.40
34776;DHT22;20989;52.566;13.346;2022-09-29T12:44:57;22.30;53.90
34776;DHT22;20989;52.566;13.346;2022-09-29T12:51:19;22.30;54.20
34776;DHT22;20989;52.566;13.346;2022-09-29T12:54:31;22.40;53.80
34776;DHT22;20989;52.566;13.346;2022-09-29T12:57:40;22.50;53.90
34776;DHT22;20989;52.566;13.346;2022-09-29T13:00:43;22.50;53.80
34776;DHT22;20989;52.566;13.346;2022-09-29T13:04:12;22.60;53.60
34776;DHT22;20989;52.566;13.346;2022-09-29T13:20:32;22.40;55.00
34776;DHT22;20989;52.566;13.346;2022-09-29T13:27:17;22.40;54.40
34776;DHT22;20989;52.566;13.346;2022-09-29T13:30:29;22.40;54.10
34776;DHT22;20989;52.566;13.346;2022-09-29T13:33:32;22.40;54.30
34776;DHT22;20989;52.566;13.346;2022-09-29T13:36:39;22.40;55.00
34776;DHT22;20989;52.566;13.346;2022-09-29T13:40:04;22.30;54.60
34776;DHT22;20989;52.566;13.346;2022-09-29T13:43:04;22.30;54.60
34776;DHT22;20989;52.566;13.346;2022-09-29T13:46:35;22.20;54.60
34776;DHT22;20989;52.566;13.346;2022-09-29T13:49:36;22.30;54.20
34776;DHT22;20989;52.566;13.346;2022-09-29T13:52:39;22.30;54.10
34776;DHT22;20989;52.566;13.346;2022-09-29T13:55:56;22.20;54.20
34776;DHT22;20989;52.566;13.346;2022-09-29T13:59:13;22.20;54.30
34776;DHT22;20989;52.566;13.346;2022-09-29T14:05:56;22.20;54.20
34776;DHT22;20989;52.566;13.346;2022-09-29T14:09:13;22.30;54.10
34776;DHT22;20989;52.566;13.346;2022-09-29T14:12:18;22.20;54.00
34776;DHT22;20989;52.566;13.346;2022-09-29T14:15:21;22.20;54.00
34776;DHT22;20989;52.566;13.346;2022-09-29T14:18:40;22.20;54.10
34776;DHT22;20989;52.566;13.346;2022-09-29T14:21:47;22.20;54.20
34776;DHT22;20989;52.566;13.346;2022-09-29T14:24:48;22.10;53.30
34776;DHT22;20989;52.566;13.346;2022-09-29T14:30:59;22.00;50.60
34776;DHT22;20989;52.566;13.346;2022-09-29T14:34:02;22.00;48.20
34776;DHT22;20989;52.566;13.346;2022-09-29T14:37:03;22.10;49.70
34776;DHT22;20989;52.566;13.346;2022-09-29T14:40:07;22.10;50.10
34776;DHT22;20989;52.566;13.346;2022-09-29T14:43:54;22.10;50.30
34776;DHT22;20989;52.566;13.346;2022-09-29T14:57:07;22.10;51.20
34776;DHT22;20989;52.566;13.346;2022-09-29T15:00:23;22.20;51.30
34776;DHT22;20989;52.566;13.346;2022-09-29T15:03:32;22.10;51.40
34776;DHT22;20989;52.566;13.346;2022-09-29T15:06:43;22.20;51.70
34776;DHT22;20989;52.566;13.346;2022-09-29T15:09:51;22.10;51.90
34776;DHT22;20989;52.566;13.346;2022-09-29T15:13:13;22.10;51.70
34776;DHT22;20989;52.566;13.346;2022-09-29T15:26:25;22.20;51.80
34776;DHT22;20989;52.566;13.346;2022-09-29T15:29:29;22.30;51.90
34776;DHT22;20989;52.566;13.346;2022-09-29T15:32:30;22.20;52.00
34776;DHT22;20989;52.566;13.346;2022-09-29T15:35:33;22.20;52.00
34776;DHT22;20989;52.566;13.346;2022-09-29T15:38:39;22.20;52.10
34776;DHT22;20989;52.566;13.346;2022-09-29T15:41:39;22.20;52.20
34776;DHT22;20989;52.566;13.346;2022-09-29T15:44:46;22.30;52.10
34776;DHT22;20989;52.566;13.346;2022-09-29T15:47:59;22.30;52.00
34776;DHT22;20989;52.566;13.346;2022-09-29T15:51:00;22.30;52.00
34776;DHT22;20989;52.566;13.346;2022-09-29T15:54:02;22.30;52.40
34776;DHT22;20989;52.566;13.346;2022-09-29T15:57:43;22.30;52.30
34776;DHT22;20989;52.566;13.346;2022-09-29T16:00:49;22.30;52.20
34776;DHT22;20989;52.566;13.346;2022-09-29T16:03:56;22.30;52.40
34776;DHT22;20989;52.566;13.346;2022-09-29T16:07:00;22.30;52.80
34776;DHT22;20989;52.566;13.346;2022-09-29T16:10:12;22.30;52.50
34776;DHT22;20989;52.566;13.346;2022-09-29T16:13:20;22.30;52.60
34776;DHT22;20989;52.566;13.346;2022-09-29T16:16:28;22.30;52.30
34776;DHT22;20989;52.566;13.346;2022-09-29T16:19:31;22.30;52.30
34776;DHT22;20989;52.566;13.346;2022-09-29T16:22:32;22.30;52.60
34776;DHT22;20989;52.566;13.346;2022-09-29T16:25:32;22.30;52.40
34776;DHT22;20989;52.566;13.346;2022-09-29T16:28:36;22.20;52.50
34776;DHT22;20989;52.566;13.346;2022-09-29T16:31:39;22.40;52.60
34776;DHT22;20989;52.566;13.346;2022-09-29T16:34:41;22.30;52.60
34776;DHT22;20989;52.566;13.346;2022-09-29T16:37:41;22.30;52.60
34776;DHT22;20989;52.566;13.346;2022-09-29T16:40:42;22.30;52.70
34776;DHT22;20989;52.566;13.346;2022-09-29T16:43:43;22.30;52.70
34776;DHT22;20989;52.566;13.346;2022-09-29T16:50:12;22.30;52.60
34776;DHT22;20989;52.566;13.346;2022-09-29T16:53:32;22.40;52.50
34776;DHT22;20989;52.566;13.346;2022-09-29T16:56:33;22.30;52.80
34776;DHT22;20989;52.566;13.346;2022-09-29T16:59:36;22.30;52.90
34776;DHT22;20989;52.566;13.346;2022-09-29T17:02:36;22.30;52.90
34776;DHT22;20989;52.566;13.346;2022-09-29T17:05:39;22.40;52.90
34776;DHT22;20989;52.566;13.346;2022-09-29T17:08:43;22.30;52.70
34776;DHT22;20989;52.566;13.346;2022-09-29T17:11:43;22.40;52.70
34776;DHT22;20989;52.566;13.346;2022-09-29T17:14:45;22.40;52.70
34776;DHT22;20989;52.566;13.346;2022-09-29T17:17:48;22.30;52.40
34776;DHT22;20989;52.566;13.346;2022-09-29T17:20:50;22.30;52.20
34776;DHT22;20989;52.566;13.346;2022-09-29T17:23:50;22.20;52.20
34776;DHT22;20989;52.566;13.346;2022-09-29T17:26:51;22.00;51.30
34776;DHT22;20989;52.566;13.346;2022-09-29T17:30:17;22.00;49.60
34776;DHT22;20989;52.566;13.346;2022-09-29T17:33:20;22.10;50.30
34776;DHT22;20989;52.566;13.346;2022-09-29T17:36:21;22.20;50.60
34776;DHT22;20989;52.566;13.346;2022-09-29T17:39:23;22.20;50.80
34776;DHT22;20989;52.566;13.346;2022-09-29T17:42:24;22.20;50.90
34776;DHT22;20989;52.566;13.346;2022-09-29T17:45:27;22.20;51.10
34776;DHT22;20989;52.566;13.346;2022-09-29T17:48:37;22.10;50.90
34776;DHT22;20989;52.566;13.346;2022-09-29T17:51:37;22.00;51.70
34776;DHT22;20989;52.566;13.346;2022-09-29T17:54:38;22.00;51.50
34776;DHT22;20989;52.566;13.346;2022-09-29T17:57:39;21.90;51.70
34776;DHT22;20989;52.566;13.346;2022-09-29T18:00:43;21.90;51.90
34776;DHT22;20989;52.566;13.346;2022-09-29T18:03:47;21.90;52.10
34776;DHT22;20989;52.566;13.346;2022-09-29T18:06:47;21.90;52.30
34776;DHT22;20989;52.566;13.346;2022-09-29T18:09:48;21.90;52.30
34776;DHT22;20989;52.566;13.346;2022-09-29T18:12:49;21.80;52.30
34776;DHT22;20989;52.566;13.346;2022-09-29T18:15:50;21.80;52.30
34776;DHT22;20989;52.566;13.346;2022-09-29T18:18:50;21.80;52.40
34776;DHT22;20989;52.566;13.346;2022-09-29T18:21:52;21.80;52.30
34776;DHT22;20989;52.566;13.346;2022-09-29T18:24:56;21.80;52.50
34776;DHT22;20989;52.566;13.346;2022-09-29T18:27:56;21.80;52.60
34776;DHT22;20989;52.566;13.346;2022-09-29T18:34:04;21.70;52.80
34776;DHT22;20989;52.566;13.346;2022-09-29T18:37:05;21.70;52.90
34776;DHT22;20989;52.566;13.346;2022-09-29T18:40:07;21.70;52.90
34776;DHT22;20989;52.566;13.346;2022-09-29T18:43:11;21.70;52.90
34776;DHT22;20989;52.566;13.346;2022-09-29T18:46:12;21.70;52.90
34776;DHT22;20989;52.566;13.346;2022-09-29T18:49:13;21.70;52.90
34776;DHT22;20989;52.566;13.346;2022-09-29T18:52:14;21.70;53.10
34776;DHT22;20989;52.566;13.346;2022-09-29T18:55:16;21.60;53.10
34776;DHT22;20989;52.566;13.346;2022-09-29T18:58:19;21.60;53.00
34776;DHT22;20989;52.566;13.346;2022-09-29T19:01:23;21.60;53.00
34776;DHT22;20989;52.566;13.346;2022-09-29T19:04:26;21.60;53.10
34776;DHT22;20989;52.566;13.346;2022-09-29T19:07:27;21.60;53.10
34776;DHT22;20989;52.566;13.346;2022-09-29T19:10:29;21.60;53.00
34776;DHT22;20989;52.566;13.346;2022-09-29T19:13:31;21.60;53.00
34776;DHT22;20989;52.566;13.346;2022-09-29T19:16:32;21.60;53.20
34776;DHT22;20989;52.566;13.346;2022-09-29T19:19:33;21.60;53.00
34776;DHT22;20989;52.566;13.346;2022-09-29T19:22:34;21.60;53.10
34776;DHT22;20989;52.566;13.346;2022-09-29T19:25:37;21.50;53.10
34776;DHT22;20989;52.566;13.346;2022-09-29T19:28:39;21.60;53.10
34776;DHT22;20989;52.566;13.346;2022-09-29T19:31:40;21.50;53.20
34776;DHT22;20989;52.566;13.346;2022-09-29T19:34:40;21.50;53.20
34776;DHT22;20989;52.566;13.346;2022-09-29T19:37:41;21.50;53.10
34776;DHT22;20989;52.566;13.346;2022-09-29T19:40:44;21.50;53.20
34776;DHT22;20989;52.566;13.346;2022-09-29T19:43:45;21.50;53.20
34776;DHT22;20989;52.566;13.346;2022-09-29T19:46:50;21.50;53.30
34776;DHT22;20989;52.566;13.346;2022-09-29T19:49:51;21.50;53.40
34776;DHT22;20989;52.566;13.346;2022-09-29T19:53:11;21.50;53.30
34776;DHT22;20989;52.566;13.346;2022-09-29T19:56:13;21.50;53.20
34776;DHT22;20989;52.566;13.346;2022-09-29T19:59:16;21.50;53.10
34776;DHT22;20989;52.566;13.346;2022-09-29T20:02:17;21.40;53.40
34776;DHT22;20989;52.566;13.346;2022-09-29T20:05:17;21.40;53.30
34776;DHT22;20989;52.566;13.346;2022-09-29T20:08:18;21.40;53.20
34776;DHT22;20989;52.566;13.346;2022-09-29T20:11:19;21.40;53.30
34776;DHT22;20989;52.566;13.346;2022-09-29T20:14:21;21.40;53.40
34776;DHT22;20989;52.566;13.346;2022-09-29T20:17:22;21.40;53.30
34776;DHT22;20989;52.566;13.346;2022-09-29T20:20:24;21.40;53.30
34776;DHT22;20989;52.566;13.346;2022-09-29T20:23:25;21.40;53.30
34776;DHT22;20989;52.566;13.346;2022-09-29T20:26:26;21.40;53.30
34776;DHT22;20989;52.566;13.346;2022-09-29T20:29:27;21.40;53.30
34776;DHT22;20989;52.566;13.346;2022-09-29T20:32:29;21.40;53.40
34776;DHT22;20989;52.566;13.346;2022-09-29T20:35:29;21.40;53.40
34776;DHT22;20989;52.566;13.346;2022-09-29T20:38:37;21.40;53.30
34776;DHT22;20989;52.566;13.346;2022-09-29T20:41:40;21.40;53.30
34776;DHT22;20989;52.566;13.346;2022-09-29T20:44:42;21.40;53.30
34776;DHT22;20989;52.566;13.346;2022-09-29T20:47:43;21.40;53.30
34776;DHT22;20989;52.566;13.346;2022-09-29T20:50:44;21.40;53.30
34776;DHT22;20989;52.566;13.346;2022-09-29T20:53:58;21.30;53.30
34776;DHT22;20989;52.566;13.346;2022-09-29T20:56:59;21.30;53.40
34776;DHT22;20989;52.566;13.346;2022-09-29T21:00:00;21.40;53.30
34776;DHT22;20989;52.566;13.346;2022-09-29T21:03:01;21.40;53.30
34776;DHT22;20989;52.566;13.346;2022-09-29T21:06:03;21.30;53.30
34776;DHT22;20989;52.566;13.346;2022-09-29T21:09:05;21.30;53.30
34776;DHT22;20989;52.566;13.346;2022-09-29T21:12:06;21.30;53.40
34776;DHT22;20989;52.566;13.346;2022-09-29T21:15:06;21.30;53.40
34776;DHT22;20989;52.566;13.346;2022-09-29T21:18:07;21.30;53.50
34776;DHT22;20989;52.566;13.346;2022-09-29T21:21:10;21.30;53.40
34776;DHT22;20989;52.566;13.346;2022-09-29T21:24:11;21.30;53.40
34776;DHT22;20989;52.566;13.346;2022-09-29T21:27:14;21.30;53.40
34776;DHT22;20989;52.566;13.346;2022-09-29T21:30:14;21.30;53.50
34776;DHT22;20989;52.566;13.346;2022-09-29T21:33:15;21.30;53.40
34776;DHT22;20989;52.566;13.346;2022-09-29T21:36:16;21.30;53.30
34776;DHT22;20989;52.566;13.346;2022-09-29T21:39:17;21.30;53.80
34776;DHT22;20989;52.566;13.346;2022-09-29T21:42:17;21.20;53.50
34776;DHT22;20989;52.566;13.346;2022-09-29T21:45:18;21.30;53.40
34776;DHT22;20989;52.566;13.346;2022-09-29T21:48:19;21.30;53.50
34776;DHT22;20989;52.566;13.346;2022-09-29T21:51:25;21.30;53.40
34776;DHT22;20989;52.566;13.346;2022-09-29T21:54:26;21.30;53.50